• Join FlightAware (Why Join?)
  • Login
  • US Flag 
 
02:28PM EST


 

Airport Tracker/Info


-or-


 

Live Flight TrackerFlight Track Log ✈ N978AC ✈ 26-Nov-2013 ✈ KAPF - KMTH

Flight Track Log - Related Links

Times and Time Zones

All times are in EST time to prevent confusion due to time zone crossing. See the N978AC flight status page for this flight to view local times or setup timezone preferences in your user account.

Time Position Orientation Groundspeed Altitude Reporting Facility
EST Latitude Longitude Course Direction KTS MPH feet Rate Location/Type
10:01AM 26.0352 -81.7154 96° East  Level Estimated
10:02AM 26.0387 -81.6918 81° East  Level FlightAware Approximate
10:02AM 26.0922 -81.6311 106° East 78 90 4,300  Level Miami Center
10:03AM 26.0421 -81.6681 81° East  Level FlightAware Approximate
10:03AM 26.0889 -81.6033 98° East 83 96 4,800  Level Miami Center
10:04AM 26.0456 -81.6445 81° East  Level FlightAware Approximate
10:04AM 26.0922 -81.5733 83° East 89 102 5,100  Level Miami Center
10:05AM 26.0490 -81.6208 81° East  Level FlightAware Approximate
10:05AM 26.0889 -81.5408 97° East 94 108 5,100  Level Miami Center
10:06AM 26.0290 -81.6121 106° East  Level Estimated
10:06AM 26.0772 -81.5150 117° Southeast 94 108 5,100  Level Miami Center
10:07AM 26.0614 -81.4911 126° Southeast 94 108 5,100 -60 Level Miami Center
10:08AM 26.0453 -81.4722 134° Southeast 94 108 5,000  Descending Miami Center
10:09AM 26.0314 -81.4483 123° Southeast 94 108 5,100  Climbing Miami Center
10:10AM 26.0175 -81.4225 121° Southeast 94 108 5,100  Level Miami Center
10:11AM 26.0100 -81.3944 107° East 89 102 5,100  Level Miami Center
10:12AM 26.0025 -81.3642 105° East 94 108 5,200  Climbing Miami Center
10:13AM 25.9972 -81.3361 102° East 94 108 5,100 -120 Descending Miami Center
10:14AM 25.9919 -81.3061 101° East 94 108 5,000 -60 Descending Miami Center
10:15AM 25.9864 -81.2758 102° East 99 114 5,000  Level Miami Center
10:16AM 25.9769 -81.2478 111° Southeast 99 114 5,000  Level Miami Center
10:17AM 25.9589 -81.2217 128° Southeast 92 106 5,100  Climbing Miami Center
10:18AM 25.9383 -81.2094 152° Southeast 86 99 5,100  Level Miami Center
10:19AM 25.9197 -81.2017 159° South 86 99 5,100  Level Miami Center
10:20AM 25.8969 -81.1986 173° South 86 99 5,200  Climbing Miami Center
10:21AM 25.8742 -81.1886 158° South 86 99 5,200  Level Miami Center
10:22AM 25.8514 -81.1878 178° South 86 99 5,200 -60 Level Miami Center
10:23AM 25.8281 -81.1939 193° South 86 99 5,100 -60 Descending Miami Center
10:24AM 25.8050 -81.1997 193° South 86 99 5,100 -60 Level Miami Center
10:25AM 25.7817 -81.2083 198° South 91 105 5,000  Descending Miami Center
10:26AM 25.7586 -81.2119 188° South 91 105 5,100 60 Climbing Miami Center
10:27AM 25.7397 -81.2158 191° South 86 99 5,200  Climbing Miami Center
10:28AM 25.7169 -81.2150 178° South 86 99 5,200  Level Miami Center
10:29AM 25.6942 -81.2097 168° South 86 99 5,200  Level Miami Center
10:30AM 25.6711 -81.2042 168° South 86 99 5,200  Level Miami Center
10:31AM 25.6483 -81.1989 168° South 86 99 5,200 -60 Level Miami Center
10:32AM 25.6233 -81.2003 183° South 86 99 5,100 -60 Descending Miami Center
10:33AM 25.6003 -81.2064 193° South 86 99 5,100  Level Miami Center
10:34AM 25.5769 -81.2100 188° South 86 99 5,100  Level Miami Center
10:35AM 25.5542 -81.2069 173° South 86 99 5,100 -60 Level Miami Center
10:36AM 25.5292 -81.2036 173° South 86 99 5,000 -300 Descending Miami Center
10:37AM 25.5044 -81.1983 169° South 86 99 4,600 -360 Descending Miami Center
10:38AM 25.4817 -81.1906 163° South 91 105 4,300 -300 Descending Miami Center
10:39AM 25.4569 -81.1781 155° Southeast 91 105 4,100 -120 Descending Miami Center
10:40AM 25.4364 -81.1658 152° Southeast 91 105 4,100  Level Miami Center
10:41AM 25.4158 -81.1583 162° South 91 105 4,100 -60 Level Miami Center
10:42AM 25.3928 -81.1553 173° South 91 105 4,000 -60 Descending Miami Center
10:43AM 25.3739 -81.1592 191° South 86 99 4,000  Level Miami Center
10:44AM 25.3508 -81.1653 193° South 86 99 4,100  Climbing Miami Center
10:45AM 25.3278 -81.1644 178° South 86 99 4,100  Level Miami Center
10:46AM 25.3069 -81.1636 178° South 86 99 4,100  Level Miami Center
10:47AM 25.2822 -81.1558 164° South 86 99 4,100 -60 Level Miami Center
10:48AM 25.2572 -81.1528 174° South 86 99 4,000 -60 Descending Miami Center
10:49AM 25.2342 -81.1519 178° South 86 99 4,000  Level Miami Center
10:50AM 25.2111 -81.1533 183° South 86 99 4,100  Climbing Miami Center
10:51AM 25.1861 -81.1547 183° South 86 99 4,000  Descending Miami Center
10:52AM 25.1631 -81.1586 189° South 86 99 4,100  Climbing Miami Center
10:53AM 25.1400 -81.1578 178° South 86 99 4,100  Level Miami Center
10:54AM 25.1192 -81.1569 178° South 86 99 4,200  Climbing Miami Center
10:55AM 25.0961 -81.1561 178° South 86 99 4,100 -60 Descending Miami Center
10:56AM 25.0733 -81.1531 173° South 86 99 4,100  Level Miami Center
10:57AM 25.0506 -81.1478 168° South 86 99 4,100  Level Miami Center
10:58AM 25.0275 -81.1469 178° South 86 99 4,100  Level Miami Center
10:59AM 25.0047 -81.1461 178° South 86 99 4,100  Level Miami Center
11:00AM 24.9817 -81.1453 178° South 86 99 4,100  Level Miami Center
11:01AM 24.9589 -81.1422 173° South 86 99 4,200 -120 Climbing Miami Center
11:02AM 24.9361 -81.1344 163° South 86 99 3,900 -300 Descending Miami Center
11:03AM 24.9111 -81.1292 169° South 86 99 3,600 -420 Descending Miami Center
11:04AM 24.8883 -81.1214 163° South 86 99 3,100 -300 Descending Miami Center
11:05AM 24.8697 -81.1186 172° South 86 99 3,000 -120 Descending Miami Center
11:06AM 24.8447 -81.1131 169° South 86 99 2,900 -60 Descending Miami Center
11:07AM 24.8261 -81.1056 160° South 86 99 2,900  Level Miami Center
11:08AM 24.8075 -81.0981 160° South 80 92 3,000  Climbing Miami Center
11:09AM 24.7869 -81.0906 162° South 80 92 2,900 -120 Descending Miami Center
11:10AM 24.7661 -81.0875 172° South 80 92 2,800 -300 Descending Miami Center
11:11AM 24.7392 -81.0842 174° South 88 101 2,400 -300 Descending Miami Center
11:12AM 24.7158 -81.0903 193° South 88 101 2,200 -120 Descending Miami Center
11:13AM 24.7028 -81.1128 237° Southwest 88 101 2,200 -60 Level Miami Center
11:14AM 24.7039 -81.1447 272° West 90 104 2,100 -60 Descending Miami Center
11:15AM 24.7153 -81.1794 290° West 104 120 2,100 60 Level Miami Center
11:16AM 24.7208 -81.2050 283° West 109 125 2,300  Climbing Miami Center
11:17AM 24.7069 -81.1839 126° Southeast 26 30 2,100 -180 Descending Miami Center
11:18AM 24.6992 -81.1606 110° East 44 51 2,000 -300 Descending Miami Center
11:19AM 24.6939 -81.1331 102° East 77 89 1,600 -420 Descending Miami Center
11:20AM 24.7072 -81.1061 61° Northeast 83 96 1,200 -600 Descending Miami Center
11:21AM 24.7164 -81.0767 71° East 88 101 500 -480 Descending Miami Center
11:22AM 24.7211 -81.0564 76° East 82 94 300 780 Descending Miami Center
11:23AM 24.7258 -81.0336 77° East 82 94 2,100 900 Climbing Miami Center
11:24AM 24.7328 -81.0108 71° East 82 94 2,100  Level Miami Center
11:25AM 24.7353 -80.9972 79° East 82 94 2,100  Level Miami Center
11:27AM 24.7361 -81.0361 271° West 82 94 2,100  Level Miami Center